Morocco, IN (47963)

3:53 PM CST on February 26, 2017 (GMT -0600)
KINMOROC2 | | Change Station

Elev 685 ft 41.02 °N, 87.45 °W | Updated 10 minutes ago

Partly Cloudy
Partly Cloudy
49.2 °F
Feels Like 43 °F
N
19.0
Wind Variable Wind from West
Gusts 26.0 mph

Today
High -- | Low -- °F
--% Chance of Precip.
Yesterday
High -- | Low -- °F
Precip. -- in
Pressure 30.00 in
Visibility 10.0 miles
Clouds Scattered Clouds 8500 ft
Windchill 43 °F
Dew Point 22 °F
Humidity 35%
Rainfall 0.00 in
Snow Depth Not available.
6:28 AM 5:37 PM
New Moon, 0% visible
METAR KRZL 262135Z AUTO 23017G26KT 10SM SCT085 09/M09 A3000 RMK AO2
Pressure 30.00 in
Visibility 10.0 miles
Clouds Scattered Clouds 8500 ft
Windchill 43 °F
Dew Point 22 °F
Humidity 35%
Rainfall 0.00 in
Snow Depth Not available.
6:28 AM 5:37 PM
New Moon, 0% visible
METAR KRZL 262135Z AUTO 23017G26KT 10SM SCT085 09/M09 A3000 RMK AO2

Get Your Daily Forecast Email!

Thanks for signing up!

Be on the lookout for a verification email in your inbox.

You'll start receiving the daily forecast at 8 AM.

×

10-Day Weather Forecast

Almanac

Astronomy

Feb. 26, 2017 Rise Set
Actual Time
Civil Twilight
Nautical Twilight
Astronomical Twilight
Moon
Length of Visible Light
Length of Day
Tomorrow will be .
, % of the Moon is Illuminated

Today's Extremes

State Highs State Lows

Community

WunderPhotos

Upload Photos

1,962,540 photos uploaded!

WunderBlog® & News

Nearby

Air Quality

  Air Quality AQ Index Pollutant
Not available.

Snow Depth

Station Depth Elevation

Earthquake Activity

City Distance Mag. Time & Date
Minimum magnitude displayed is 2.5.

Coastal Water Temperatures

Place Temperature

Stations

Nearby Weather Stations

Station Location Temp. Windchill Dew Point Humidity Wind Precip. Elev Updated Type
                   

Watches & Warnings

There are currently no watches in effect.